createdAt,value
2022-08-11T00:00:01.222Z,51.83
2022-08-11T00:02:37.352Z,52.29
2022-08-11T00:05:09.609Z,52.18
2022-08-11T00:07:47.118Z,51.89
2022-08-11T00:10:17.629Z,52.10
2022-08-11T00:12:51.780Z,52.32
2022-08-11T00:15:25.031Z,52.25
2022-08-11T00:17:58.799Z,52.45
2022-08-11T00:20:35.879Z,52.66
2022-08-11T00:23:12.032Z,52.67
2022-08-11T00:25:43.083Z,52.77
2022-08-11T00:28:30.900Z,52.82
2022-08-11T00:31:06.056Z,52.69
2022-08-11T00:33:44.085Z,52.42
2022-08-11T00:36:16.485Z,53.40
2022-08-11T00:38:47.818Z,53.94
2022-08-11T00:41:30.382Z,53.89
2022-08-11T00:44:26.201Z,53.87
2022-08-11T00:47:06.770Z,54.06
2022-08-11T00:49:46.530Z,53.66
2022-08-11T00:52:26.681Z,54.12
2022-08-11T00:55:35.790Z,54.38
2022-08-11T00:58:41.239Z,54.69
2022-08-11T01:01:26.033Z,55.50
2022-08-11T01:04:55.225Z,55.09
2022-08-11T01:08:02.818Z,55.15
2022-08-11T01:10:55.930Z,55.52
2022-08-11T01:13:51.454Z,55.79
2022-08-11T01:16:47.827Z,55.66
2022-08-11T01:20:47.588Z,55.53
2022-08-11T01:23:39.081Z,55.77
2022-08-11T01:26:56.158Z,55.74
2022-08-11T01:30:17.439Z,56.02
2022-08-11T01:33:19.994Z,56.19
2022-08-11T01:36:38.744Z,56.33
2022-08-11T01:39:53.337Z,56.58
2022-08-11T01:43:10.372Z,56.69
2022-08-11T01:45:51.173Z,56.96
2022-08-11T01:48:35.453Z,56.91
2022-08-11T01:51:16.892Z,56.93
2022-08-11T01:53:58.044Z,57.43
2022-08-11T01:56:57.116Z,57.24
2022-08-11T01:59:30.583Z,57.85
2022-08-11T02:02:46.575Z,57.98
2022-08-11T02:05:28.865Z,58.38
2022-08-11T02:08:06.221Z,58.84
2022-08-11T02:11:04.880Z,58.57
2022-08-11T02:13:48.847Z,58.60
2022-08-11T02:16:28.385Z,58.49
2022-08-11T02:19:24.349Z,58.48
2022-08-11T02:22:17.069Z,58.18
2022-08-11T02:24:52.574Z,58.40
2022-08-11T02:27:25.820Z,58.93
2022-08-11T02:30:07.426Z,58.56
2022-08-11T02:33:01.950Z,58.94
2022-08-11T02:35:43.196Z,59.28
2022-08-11T02:38:24.790Z,59.35
2022-08-11T02:41:03.840Z,59.78
2022-08-11T02:43:51.003Z,59.67
2022-08-11T02:46:26.769Z,60.21
2022-08-11T02:49:24.050Z,60.30
2022-08-11T02:52:04.951Z,60.56
2022-08-11T02:54:43.276Z,60.54
2022-08-11T02:57:24.467Z,61.16
2022-08-11T02:59:57.824Z,60.94
2022-08-11T03:02:45.913Z,61.14
2022-08-11T03:05:25.090Z,61.42
2022-08-11T03:08:24.780Z,61.54
2022-08-11T03:11:19.763Z,61.20
2022-08-11T03:14:13.287Z,61.02
2022-08-11T03:16:52.955Z,61.08
2022-08-11T03:19:33.334Z,61.42
2022-08-11T03:22:09.438Z,61.29
2022-08-11T03:24:58.698Z,61.55
2022-08-11T03:27:47.346Z,61.58
2022-08-11T03:30:18.891Z,62.10
2022-08-11T03:33:18.897Z,62.30
2022-08-11T03:36:01.783Z,62.51
2022-08-11T03:38:45.127Z,62.24
2022-08-11T03:42:01.363Z,62.58
2022-08-11T03:45:03.294Z,62.23
2022-08-11T03:47:52.314Z,62.40
2022-08-11T03:50:35.843Z,62.46
2022-08-11T03:53:15.574Z,62.40
2022-08-11T03:56:13.469Z,62.22
2022-08-11T03:59:06.201Z,62.19
2022-08-11T04:02:04.159Z,63.12
2022-08-11T04:05:09.186Z,63.23
2022-08-11T04:08:20.842Z,63.58
2022-08-11T04:11:39.297Z,63.41
2022-08-11T04:14:56.157Z,63.23
2022-08-11T04:18:01.075Z,64.10
2022-08-11T04:20:53.017Z,63.58
2022-08-11T04:24:12.938Z,63.63
2022-08-11T04:27:36.834Z,63.90
2022-08-11T04:30:13.216Z,63.98
2022-08-11T04:33:03.811Z,63.88
2022-08-11T04:35:48.806Z,64.09
2022-08-11T04:38:59.805Z,63.92
2022-08-11T04:42:31.371Z,64.00
2022-08-11T04:45:36.466Z,63.95
2022-08-11T04:48:42.332Z,64.40
2022-08-11T04:51:50.116Z,64.54
2022-08-11T04:54:58.916Z,64.25
2022-08-11T04:57:59.665Z,64.43
2022-08-11T05:00:54.200Z,64.33
2022-08-11T05:03:44.290Z,64.52
2022-08-11T05:06:44.000Z,64.83
2022-08-11T05:09:28.460Z,64.74
2022-08-11T05:12:23.889Z,64.10
2022-08-11T05:15:10.796Z,64.61
2022-08-11T05:18:03.236Z,64.33
2022-08-11T05:20:58.743Z,64.50
2022-08-11T05:23:46.651Z,64.06
2022-08-11T05:26:47.574Z,63.96
2022-08-11T05:29:53.960Z,64.13
2022-08-11T05:32:41.828Z,64.01
2022-08-11T05:35:59.824Z,63.99
2022-08-11T05:38:18.250Z,64.38
2022-08-11T05:41:08.128Z,63.99
2022-08-11T05:44:19.667Z,63.62
2022-08-11T05:47:08.023Z,63.85
2022-08-11T05:49:53.865Z,63.03
2022-08-11T05:52:43.390Z,62.97
2022-08-11T05:55:31.686Z,63.62
2022-08-11T05:58:04.952Z,63.44
2022-08-11T06:00:43.114Z,63.10
2022-08-11T06:03:12.248Z,63.09
2022-08-11T06:05:44.215Z,62.85
2022-08-11T06:08:14.056Z,63.03
2022-08-11T06:10:44.350Z,62.90
2022-08-11T06:13:17.304Z,62.39
2022-08-11T06:15:48.307Z,63.00
2022-08-11T06:18:17.581Z,62.70
2022-08-11T06:20:48.505Z,63.24
2022-08-11T06:23:19.531Z,62.94
2022-08-11T06:25:48.133Z,62.43
2022-08-11T06:28:20.710Z,61.46
2022-08-11T06:30:51.509Z,61.73
2022-08-11T06:33:30.999Z,62.36
2022-08-11T06:36:06.737Z,61.87
2022-08-11T06:38:58.097Z,62.48
2022-08-11T06:41:31.692Z,61.87
2022-08-11T06:44:17.557Z,61.70
2022-08-11T06:46:51.028Z,61.16
2022-08-11T06:49:38.573Z,60.80
2022-08-11T06:52:32.141Z,60.59
2022-08-11T06:55:05.693Z,60.35
2022-08-11T06:57:53.098Z,59.13
2022-08-11T07:00:30.450Z,58.78
2022-08-11T07:03:08.675Z,59.07
2022-08-11T07:05:46.136Z,58.89
2022-08-11T07:08:58.853Z,59.13
2022-08-11T07:12:13.746Z,59.13
2022-08-11T07:15:07.960Z,58.74
2022-08-11T07:17:42.730Z,58.01
2022-08-11T07:20:31.741Z,57.50
2022-08-11T07:23:21.005Z,57.23
2022-08-11T07:26:11.340Z,57.00
2022-08-11T07:28:56.552Z,56.98
2022-08-11T07:31:31.549Z,56.90
2022-08-11T07:34:12.229Z,56.81
2022-08-11T07:36:51.814Z,56.21
2022-08-11T07:39:22.691Z,55.88
2022-08-11T07:41:53.241Z,55.22
2022-08-11T07:44:22.350Z,55.47
2022-08-11T07:47:09.215Z,55.40
2022-08-11T07:49:57.318Z,55.80
2022-08-11T07:53:07.257Z,56.21
2022-08-11T07:55:51.308Z,55.24
2022-08-11T07:58:45.038Z,55.17
2022-08-11T08:01:37.310Z,54.50
2022-08-11T08:04:25.138Z,54.47
2022-08-11T08:07:12.246Z,54.22
2022-08-11T08:09:58.994Z,54.46
2022-08-11T08:12:46.655Z,53.78
2022-08-11T08:15:34.392Z,53.81
2022-08-11T08:18:10.026Z,53.30
2022-08-11T08:20:56.559Z,53.34
2022-08-11T08:23:34.449Z,53.54
2022-08-11T08:26:05.612Z,53.82
2022-08-11T08:28:46.577Z,53.62
2022-08-11T08:31:14.994Z,53.78
2022-08-11T08:33:44.743Z,52.56
2022-08-11T08:36:15.256Z,51.21
2022-08-11T08:38:45.003Z,51.47
2022-08-11T08:41:17.286Z,51.53
2022-08-11T08:43:52.745Z,50.07
2022-08-11T08:46:28.117Z,48.75
2022-08-11T08:48:57.827Z,47.91
2022-08-11T08:52:01.926Z,47.51
2022-08-11T08:54:32.226Z,47.58
2022-08-11T08:57:04.274Z,46.22
2022-08-11T08:59:48.421Z,45.72
2022-08-11T09:02:22.125Z,46.22
2022-08-11T09:05:05.297Z,46.25
2022-08-11T09:07:39.913Z,45.66
2022-08-11T09:10:11.560Z,45.39
2022-08-11T09:12:46.630Z,44.81
2022-08-11T09:15:20.261Z,43.56
2022-08-11T09:17:51.364Z,43.69
2022-08-11T09:20:24.915Z,43.69
2022-08-11T09:26:30.904Z,41.54
2022-08-11T09:29:01.556Z,41.26
2022-08-11T09:31:39.021Z,39.97
2022-08-11T09:34:08.927Z,38.96
2022-08-11T09:36:54.802Z,38.76
2022-08-11T09:39:40.673Z,38.55
2022-08-11T09:42:11.343Z,37.79
2022-08-11T09:44:50.833Z,37.93
2022-08-11T09:47:24.306Z,36.30
2022-08-11T09:49:54.831Z,36.73
2022-08-11T09:52:25.065Z,36.92
2022-08-11T09:54:54.462Z,35.29
2022-08-11T09:57:41.171Z,36.22
2022-08-11T10:00:14.170Z,36.08
2022-08-11T10:02:46.123Z,37.06
2022-08-11T10:05:35.994Z,36.59
2022-08-11T10:08:05.682Z,36.24
2022-08-11T10:10:37.473Z,35.40
2022-08-11T10:14:31.187Z,35.34
2022-08-11T10:15:59.974Z,34.10
2022-08-11T10:18:52.346Z,34.46
2022-08-11T10:21:28.493Z,33.76
2022-08-11T10:24:17.489Z,34.14
2022-08-11T10:26:55.725Z,33.28
2022-08-11T10:29:44.391Z,34.07
2022-08-11T10:32:52.277Z,33.40
2022-08-11T10:35:30.648Z,33.59
2022-08-11T10:38:07.599Z,33.28
2022-08-11T10:40:40.188Z,34.00
2022-08-11T10:43:13.722Z,33.87
2022-08-11T10:46:04.290Z,34.05
2022-08-11T10:48:38.551Z,33.25
2022-08-11T10:51:15.273Z,33.38
2022-08-11T10:54:03.099Z,33.45
2022-08-11T10:56:51.861Z,33.39
2022-08-11T10:59:20.201Z,33.60
2022-08-11T11:01:50.012Z,33.04
2022-08-11T11:04:22.055Z,32.69
2022-08-11T11:07:00.403Z,33.26
2022-08-11T11:09:32.408Z,31.63
2022-08-11T11:12:22.212Z,31.60
2022-08-11T11:15:17.998Z,32.29
2022-08-11T11:18:01.562Z,31.92
2022-08-11T11:20:38.430Z,31.66
2022-08-11T11:23:16.669Z,31.58
2022-08-11T11:26:10.704Z,32.17
2022-08-11T11:28:57.974Z,31.71
2022-08-11T11:31:34.955Z,31.76
2022-08-11T11:34:20.087Z,31.66
2022-08-11T11:36:50.434Z,31.79
2022-08-11T11:39:23.743Z,31.76
2022-08-11T11:41:54.578Z,31.03
2022-08-11T11:44:23.663Z,31.50
2022-08-11T11:46:52.760Z,31.96
2022-08-11T11:51:58.819Z,31.50
2022-08-11T11:54:30.990Z,30.50
2022-08-11T11:57:20.747Z,31.22
2022-08-11T12:00:07.487Z,30.96
2022-08-11T12:02:38.240Z,31.36
2022-08-11T12:05:07.490Z,29.50
2022-08-11T12:08:10.593Z,29.38
2022-08-11T12:10:45.808Z,29.14
2022-08-11T12:13:32.528Z,28.44
2022-08-11T12:16:31.803Z,28.72
2022-08-11T12:18:54.031Z,28.20
2022-08-11T12:21:23.803Z,28.47
2022-08-11T12:24:10.468Z,28.24
2022-08-11T12:27:14.972Z,27.99
2022-08-11T12:29:43.930Z,28.42
2022-08-11T12:32:12.173Z,28.56
2022-08-11T12:34:40.324Z,28.55
2022-08-11T12:37:13.503Z,28.73
2022-08-11T12:40:16.170Z,28.87
2022-08-11T12:43:21.750Z,28.08
2022-08-11T12:45:58.324Z,28.25
2022-08-11T12:48:58.448Z,27.87
2022-08-11T12:52:00.730Z,27.91
2022-08-11T12:54:47.078Z,28.54
2022-08-11T12:57:37.416Z,28.73
2022-08-11T13:00:26.167Z,28.77
2022-08-11T13:03:14.087Z,28.84
2022-08-11T13:05:44.961Z,28.49
2022-08-11T13:08:15.622Z,27.65
2022-08-11T13:11:08.155Z,28.42
2022-08-11T13:13:52.564Z,28.83
2022-08-11T13:16:29.224Z,27.74
2022-08-11T13:18:58.668Z,27.94
2022-08-11T13:21:28.061Z,28.53
2022-08-11T13:24:00.999Z,28.63
2022-08-11T13:26:48.102Z,28.67
2022-08-11T13:29:20.307Z,28.64
2022-08-11T13:31:50.383Z,27.54
2022-08-11T13:34:19.958Z,27.37
2022-08-11T13:36:50.270Z,27.73
2022-08-11T13:39:19.292Z,26.63
2022-08-11T13:41:49.417Z,25.99
2022-08-11T13:44:24.795Z,26.02
2022-08-11T13:46:57.348Z,26.50
2022-08-11T13:49:27.434Z,26.22
2022-08-11T13:51:57.009Z,26.74
2022-08-11T13:54:28.085Z,26.70
2022-08-11T13:57:01.316Z,27.55
2022-08-11T13:59:31.121Z,26.57
2022-08-11T14:02:21.939Z,26.82
2022-08-11T14:04:57.353Z,27.74
2022-08-11T14:07:28.565Z,27.08
2022-08-11T14:09:59.187Z,27.01
2022-08-11T14:12:46.838Z,26.86
2022-08-11T14:15:20.764Z,27.48
2022-08-11T14:17:55.926Z,26.64
2022-08-11T14:20:39.468Z,26.91
2022-08-11T14:23:12.223Z,26.56
2022-08-11T14:26:02.942Z,26.51
2022-08-11T14:28:43.792Z,25.44
2022-08-11T14:31:14.208Z,25.67
2022-08-11T14:33:59.613Z,26.34
2022-08-11T14:36:34.904Z,25.93
2022-08-11T14:39:06.875Z,26.64
2022-08-11T14:42:12.605Z,26.36
2022-08-11T14:45:00.392Z,26.74
2022-08-11T14:47:30.897Z,26.42
2022-08-11T14:50:10.879Z,26.53
2022-08-11T14:52:45.122Z,26.41
2022-08-11T14:55:32.195Z,27.09
2022-08-11T14:58:01.674Z,26.36
2022-08-11T15:00:30.244Z,26.30
2022-08-11T15:03:10.997Z,26.43
2022-08-11T15:05:56.813Z,26.38
2022-08-11T15:08:49.091Z,25.99
2022-08-11T15:11:36.352Z,25.68
2022-08-11T15:14:07.314Z,25.13
2022-08-11T15:16:54.907Z,24.85
2022-08-11T15:19:23.452Z,24.75
2022-08-11T15:22:10.005Z,25.34
2022-08-11T15:24:38.373Z,23.88
2022-08-11T15:27:29.828Z,23.51
2022-08-11T15:30:32.491Z,23.10
2022-08-11T15:33:23.163Z,22.64
2022-08-11T15:36:09.669Z,21.88
2022-08-11T15:38:43.811Z,21.90
2022-08-11T15:41:34.074Z,21.49
2022-08-11T15:44:51.371Z,20.38
2022-08-11T15:47:21.359Z,20.38
2022-08-11T15:50:12.721Z,19.65
2022-08-11T15:52:49.339Z,19.98
2022-08-11T15:55:20.443Z,20.21
2022-08-11T15:58:09.016Z,20.71
2022-08-11T16:00:59.114Z,20.95
2022-08-11T16:04:06.347Z,20.02
2022-08-11T16:06:38.946Z,19.06
2022-08-11T16:09:18.488Z,19.92
2022-08-11T16:11:50.511Z,18.37
2022-08-11T16:14:43.476Z,17.89
2022-08-11T16:17:17.076Z,17.80
2022-08-11T16:19:47.821Z,18.54
2022-08-11T16:22:32.476Z,17.63
2022-08-11T16:27:03.734Z,18.14
2022-08-11T16:27:53.029Z,17.58
2022-08-11T16:30:21.427Z,17.58
2022-08-11T16:32:52.994Z,17.62
2022-08-11T16:35:42.628Z,17.73
2022-08-11T16:38:30.377Z,17.82
2022-08-11T16:41:01.125Z,18.04
2022-08-11T16:43:50.492Z,18.63
2022-08-11T16:46:37.704Z,18.01
2022-08-11T16:49:07.758Z,17.71
2022-08-11T16:51:35.809Z,17.44
2022-08-11T16:54:05.946Z,18.04
2022-08-11T16:56:39.731Z,17.90
2022-08-11T16:59:17.283Z,18.03
2022-08-11T17:01:53.670Z,18.34
2022-08-11T17:04:53.586Z,18.29
2022-08-11T17:07:43.137Z,18.43
2022-08-11T17:11:00.049Z,18.30
2022-08-11T17:13:37.959Z,18.20
2022-08-11T17:16:12.811Z,18.59
2022-08-11T17:18:52.471Z,18.84
2022-08-11T17:21:23.883Z,18.58
2022-08-11T17:23:55.065Z,18.06
2022-08-11T17:26:51.482Z,18.11
2022-08-11T17:29:22.513Z,18.40
2022-08-11T17:32:10.953Z,18.35
2022-08-11T17:34:58.770Z,18.50
2022-08-11T17:37:30.578Z,18.42
2022-08-11T17:39:59.240Z,18.43
2022-08-11T17:42:49.175Z,19.32
2022-08-11T17:45:37.029Z,20.34
2022-08-11T17:48:25.047Z,20.73
2022-08-11T17:50:54.749Z,21.56
2022-08-11T17:53:40.592Z,22.09
2022-08-11T17:56:49.470Z,22.96
2022-08-11T17:59:36.281Z,23.10
2022-08-11T18:02:20.679Z,23.77
2022-08-11T18:04:59.152Z,24.19
2022-08-11T18:07:44.615Z,23.97
2022-08-11T18:10:30.522Z,24.29
2022-08-11T18:13:16.827Z,24.30
2022-08-11T18:16:04.767Z,25.17
2022-08-11T18:18:49.961Z,24.87
2022-08-11T18:21:39.456Z,25.09
2022-08-11T18:24:29.421Z,25.60
2022-08-11T18:27:17.157Z,26.31
2022-08-11T18:30:10.695Z,26.39
2022-08-11T18:33:25.017Z,26.03
2022-08-11T18:36:09.329Z,27.41
2022-08-11T18:38:57.865Z,27.69
2022-08-11T18:41:45.866Z,27.45
2022-08-11T18:44:34.683Z,27.33
2022-08-11T18:47:28.897Z,28.22
2022-08-11T18:50:22.002Z,29.21
2022-08-11T18:53:24.949Z,29.00
2022-08-11T18:56:12.182Z,29.79
2022-08-11T18:59:02.021Z,29.82
2022-08-11T19:01:54.793Z,30.02
2022-08-11T19:04:41.634Z,30.12
2022-08-11T19:07:30.090Z,29.88
2022-08-11T19:10:17.807Z,29.59
2022-08-11T19:13:06.186Z,29.96
2022-08-11T19:15:53.966Z,30.22
2022-08-11T19:18:41.945Z,30.49
2022-08-11T19:21:29.594Z,30.42
2022-08-11T19:24:17.357Z,30.57
2022-08-11T19:27:04.190Z,30.87
2022-08-11T19:30:06.908Z,30.97
2022-08-11T19:33:00.240Z,31.16
2022-08-11T19:35:46.882Z,31.35
2022-08-11T19:38:32.744Z,31.45
2022-08-11T19:41:51.804Z,31.89
2022-08-11T19:44:25.798Z,31.94
2022-08-11T19:47:14.283Z,31.96
2022-08-11T19:50:02.701Z,32.50
2022-08-11T19:52:49.174Z,32.80
2022-08-11T19:55:35.920Z,32.96
2022-08-11T19:58:21.735Z,33.17
2022-08-11T20:01:07.540Z,33.36
2022-08-11T20:03:54.013Z,33.44
2022-08-11T20:06:41.058Z,33.84
2022-08-11T20:09:28.528Z,34.08
2022-08-11T20:12:34.979Z,34.23
2022-08-11T20:15:21.519Z,34.43
2022-08-11T20:18:07.337Z,34.63
2022-08-11T20:20:54.946Z,34.74
2022-08-11T20:23:41.216Z,34.97
2022-08-11T20:26:31.265Z,35.31
2022-08-11T20:29:19.793Z,35.42
2022-08-11T20:32:06.425Z,35.79
2022-08-11T20:34:56.212Z,36.06
2022-08-11T20:37:46.701Z,35.96
2022-08-11T20:40:37.453Z,36.07
2022-08-11T20:44:06.210Z,36.71
2022-08-11T20:46:31.869Z,36.58
2022-08-11T20:49:20.659Z,36.20
2022-08-11T20:52:06.251Z,36.14
2022-08-11T20:54:54.779Z,36.58
2022-08-11T20:58:04.189Z,36.29
2022-08-11T21:00:47.729Z,36.82
2022-08-11T21:03:36.205Z,36.94
2022-08-11T21:06:33.021Z,36.99
2022-08-11T21:09:23.842Z,36.83
2022-08-11T21:15:46.969Z,36.91
2022-08-11T21:18:36.857Z,37.25
2022-08-11T21:21:26.342Z,37.02
2022-08-11T21:24:16.252Z,37.36
2022-08-11T21:27:05.688Z,37.09
2022-08-11T21:29:54.686Z,37.37
2022-08-11T21:32:42.459Z,37.48
2022-08-11T21:35:29.112Z,37.66
2022-08-11T21:38:17.357Z,38.17
2022-08-11T21:41:04.920Z,38.21
2022-08-11T21:43:51.759Z,38.13
2022-08-11T21:46:41.136Z,38.07
2022-08-11T21:49:28.476Z,38.33
2022-08-11T21:52:13.653Z,38.42
2022-08-11T21:54:59.915Z,38.83
2022-08-11T21:57:47.778Z,38.64
2022-08-11T22:00:35.021Z,38.88
2022-08-11T22:03:23.340Z,39.10
2022-08-11T22:06:09.614Z,39.09
2022-08-11T22:08:55.447Z,39.09
2022-08-11T22:11:41.223Z,39.57
2022-08-11T22:14:26.388Z,39.47
2022-08-11T22:17:11.782Z,39.96
2022-08-11T22:20:01.059Z,39.89
2022-08-11T22:22:53.181Z,39.80
2022-08-11T22:25:51.045Z,39.99
2022-08-11T22:28:37.188Z,40.02
2022-08-11T22:31:24.307Z,39.82
2022-08-11T22:34:10.078Z,40.13
2022-08-11T22:36:57.992Z,40.04
2022-08-11T22:39:45.888Z,39.77
2022-08-11T22:42:48.761Z,40.07
2022-08-11T22:45:34.268Z,40.20
2022-08-11T22:48:20.692Z,40.44
2022-08-11T22:51:06.594Z,40.58
2022-08-11T22:53:58.512Z,40.67
2022-08-11T22:56:46.678Z,40.72
2022-08-11T22:59:34.401Z,41.21
2022-08-11T23:02:20.677Z,41.43
2022-08-11T23:05:07.651Z,41.34
2022-08-11T23:07:54.194Z,41.87
2022-08-11T23:10:42.218Z,42.00
2022-08-11T23:13:28.021Z,41.91
2022-08-11T23:16:14.353Z,41.46
2022-08-11T23:19:00.475Z,41.60
2022-08-11T23:21:46.723Z,41.48
2022-08-11T23:24:32.923Z,41.56
2022-08-11T23:27:21.233Z,41.85
2022-08-11T23:30:09.414Z,41.91
2022-08-11T23:32:56.256Z,42.07
2022-08-11T23:35:53.969Z,41.98
2022-08-11T23:38:42.437Z,42.13
2022-08-11T23:41:28.846Z,42.74
2022-08-11T23:44:17.028Z,42.40
2022-08-11T23:47:03.402Z,42.79
2022-08-11T23:49:49.646Z,43.06
2022-08-11T23:52:36.427Z,43.49
2022-08-11T23:55:22.667Z,44.07
2022-08-11T23:58:08.463Z,44.17
